sensor_id;sensor_type;location;lat;lon;timestamp;P1;durP1;ratioP1;P2;durP2;ratioP2
75450;SDS011;64029;48.244;9.188;2023-08-06T00:01:06;4.53;;;3.67;;
75450;SDS011;64029;48.244;9.188;2023-08-06T00:03:32;3.90;;;3.27;;
75450;SDS011;64029;48.244;9.188;2023-08-06T00:05:59;2.83;;;2.63;;
75450;SDS011;64029;48.244;9.188;2023-08-06T00:08:28;5.37;;;3.40;;
75450;SDS011;64029;48.244;9.188;2023-08-06T00:10:55;3.60;;;3.30;;
75450;SDS011;64029;48.244;9.188;2023-08-06T00:13:21;3.93;;;2.80;;
75450;SDS011;64029;48.244;9.188;2023-08-06T00:15:48;4.50;;;2.83;;
75450;SDS011;64029;48.244;9.188;2023-08-06T00:18:15;3.77;;;3.43;;
75450;SDS011;64029;48.244;9.188;2023-08-06T00:20:42;3.43;;;2.80;;
75450;SDS011;64029;48.244;9.188;2023-08-06T00:23:09;4.57;;;2.50;;
75450;SDS011;64029;48.244;9.188;2023-08-06T00:25:37;4.27;;;2.80;;
75450;SDS011;64029;48.244;9.188;2023-08-06T00:28:04;3.60;;;2.20;;
75450;SDS011;64029;48.244;9.188;2023-08-06T00:30:31;3.27;;;2.97;;
75450;SDS011;64029;48.244;9.188;2023-08-06T00:32:58;3.17;;;2.60;;
75450;SDS011;64029;48.244;9.188;2023-08-06T00:35:25;3.97;;;2.40;;
75450;SDS011;64029;48.244;9.188;2023-08-06T00:37:52;2.33;;;2.07;;
75450;SDS011;64029;48.244;9.188;2023-08-06T00:40:20;2.60;;;2.40;;
75450;SDS011;64029;48.244;9.188;2023-08-06T00:42:48;3.20;;;2.60;;
75450;SDS011;64029;48.244;9.188;2023-08-06T00:45:15;3.43;;;2.20;;
75450;SDS011;64029;48.244;9.188;2023-08-06T00:47:42;2.10;;;2.00;;
75450;SDS011;64029;48.244;9.188;2023-08-06T00:50:10;2.70;;;2.50;;
75450;SDS011;64029;48.244;9.188;2023-08-06T00:52:37;4.23;;;2.47;;
75450;SDS011;64029;48.244;9.188;2023-08-06T00:55:04;3.40;;;1.90;;
75450;SDS011;64029;48.244;9.188;2023-08-06T00:57:33;3.67;;;2.60;;
75450;SDS011;64029;48.244;9.188;2023-08-06T01:00:05;3.43;;;2.10;;
75450;SDS011;64029;48.244;9.188;2023-08-06T01:02:33;3.27;;;2.23;;
75450;SDS011;64029;48.244;9.188;2023-08-06T01:05:00;3.30;;;1.93;;
75450;SDS011;64029;48.244;9.188;2023-08-06T01:07:35;2.33;;;2.00;;
75450;SDS011;64029;48.244;9.188;2023-08-06T01:10:17;5.37;;;2.17;;
75450;SDS011;64029;48.244;9.188;2023-08-06T01:12:52;1.80;;;1.70;;
75450;SDS011;64029;48.244;9.188;2023-08-06T01:15:28;3.50;;;2.30;;
75450;SDS011;64029;48.244;9.188;2023-08-06T01:17:59;2.43;;;2.13;;
75450;SDS011;64029;48.244;9.188;2023-08-06T01:20:29;4.67;;;2.20;;
75450;SDS011;64029;48.244;9.188;2023-08-06T01:23:01;2.93;;;2.13;;
75450;SDS011;64029;48.244;9.188;2023-08-06T01:25:29;2.23;;;2.03;;
75450;SDS011;64029;48.244;9.188;2023-08-06T01:28:01;2.23;;;2.03;;
75450;SDS011;64029;48.244;9.188;2023-08-06T01:30:33;3.40;;;2.53;;
75450;SDS011;64029;48.244;9.188;2023-08-06T01:33:04;3.27;;;2.17;;
75450;SDS011;64029;48.244;9.188;2023-08-06T01:35:33;4.43;;;2.37;;
75450;SDS011;64029;48.244;9.188;2023-08-06T01:38:01;2.37;;;2.10;;
75450;SDS011;64029;48.244;9.188;2023-08-06T01:40:34;2.60;;;2.40;;
75450;SDS011;64029;48.244;9.188;2023-08-06T01:43:03;3.33;;;2.27;;
75450;SDS011;64029;48.244;9.188;2023-08-06T01:45:32;4.73;;;2.50;;
75450;SDS011;64029;48.244;9.188;2023-08-06T01:47:59;3.57;;;2.23;;
75450;SDS011;64029;48.244;9.188;2023-08-06T01:50:33;4.23;;;1.90;;
75450;SDS011;64029;48.244;9.188;2023-08-06T01:53:05;2.50;;;1.87;;
75450;SDS011;64029;48.244;9.188;2023-08-06T01:55:34;3.67;;;2.43;;
75450;SDS011;64029;48.244;9.188;2023-08-06T01:58:00;2.80;;;2.13;;
75450;SDS011;64029;48.244;9.188;2023-08-06T02:00:27;4.17;;;2.20;;
75450;SDS011;64029;48.244;9.188;2023-08-06T02:02:54;4.00;;;2.20;;
75450;SDS011;64029;48.244;9.188;2023-08-06T02:05:27;4.40;;;2.20;;
75450;SDS011;64029;48.244;9.188;2023-08-06T02:07:56;4.23;;;2.33;;
75450;SDS011;64029;48.244;9.188;2023-08-06T02:10:24;2.60;;;2.27;;
75450;SDS011;64029;48.244;9.188;2023-08-06T02:12:51;2.87;;;2.60;;
75450;SDS011;64029;48.244;9.188;2023-08-06T02:15:18;3.80;;;2.40;;
75450;SDS011;64029;48.244;9.188;2023-08-06T02:17:45;3.20;;;2.20;;
75450;SDS011;64029;48.244;9.188;2023-08-06T02:20:13;2.00;;;1.80;;
75450;SDS011;64029;48.244;9.188;2023-08-06T02:22:40;2.13;;;1.93;;
75450;SDS011;64029;48.244;9.188;2023-08-06T02:25:11;2.53;;;2.17;;
75450;SDS011;64029;48.244;9.188;2023-08-06T02:27:39;2.50;;;1.87;;
75450;SDS011;64029;48.244;9.188;2023-08-06T02:30:08;2.00;;;1.63;;
75450;SDS011;64029;48.244;9.188;2023-08-06T02:32:35;2.27;;;2.00;;
75450;SDS011;64029;48.244;9.188;2023-08-06T02:35:02;2.97;;;2.53;;
75450;SDS011;64029;48.244;9.188;2023-08-06T02:37:29;2.20;;;1.87;;
75450;SDS011;64029;48.244;9.188;2023-08-06T02:39:59;2.10;;;1.90;;
75450;SDS011;64029;48.244;9.188;2023-08-06T02:42:27;2.83;;;2.47;;
75450;SDS011;64029;48.244;9.188;2023-08-06T02:44:54;2.47;;;2.10;;
75450;SDS011;64029;48.244;9.188;2023-08-06T02:47:21;2.80;;;1.97;;
75450;SDS011;64029;48.244;9.188;2023-08-06T02:49:48;2.27;;;2.07;;
75450;SDS011;64029;48.244;9.188;2023-08-06T02:52:15;4.77;;;2.10;;
75450;SDS011;64029;48.244;9.188;2023-08-06T02:54:42;3.00;;;2.13;;
75450;SDS011;64029;48.244;9.188;2023-08-06T02:57:09;2.97;;;2.43;;
75450;SDS011;64029;48.244;9.188;2023-08-06T02:59:37;2.80;;;1.70;;
75450;SDS011;64029;48.244;9.188;2023-08-06T03:02:04;2.47;;;2.10;;
75450;SDS011;64029;48.244;9.188;2023-08-06T03:04:31;2.07;;;1.87;;
75450;SDS011;64029;48.244;9.188;2023-08-06T03:06:58;2.90;;;1.80;;
75450;SDS011;64029;48.244;9.188;2023-08-06T03:09:25;5.40;;;2.17;;
75450;SDS011;64029;48.244;9.188;2023-08-06T03:11:52;5.53;;;2.03;;
75450;SDS011;64029;48.244;9.188;2023-08-06T03:14:20;2.60;;;2.23;;
75450;SDS011;64029;48.244;9.188;2023-08-06T03:16:49;4.17;;;1.80;;
75450;SDS011;64029;48.244;9.188;2023-08-06T03:19:16;2.80;;;1.97;;
75450;SDS011;64029;48.244;9.188;2023-08-06T03:21:42;2.50;;;2.10;;
75450;SDS011;64029;48.244;9.188;2023-08-06T03:24:11;5.73;;;2.23;;
75450;SDS011;64029;48.244;9.188;2023-08-06T03:26:39;2.43;;;1.70;;
75450;SDS011;64029;48.244;9.188;2023-08-06T03:29:06;3.00;;;2.17;;
75450;SDS011;64029;48.244;9.188;2023-08-06T03:31:33;2.00;;;1.80;;
75450;SDS011;64029;48.244;9.188;2023-08-06T03:34:01;3.43;;;2.20;;
75450;SDS011;64029;48.244;9.188;2023-08-06T03:36:28;2.80;;;1.90;;
75450;SDS011;64029;48.244;9.188;2023-08-06T03:38:55;5.93;;;2.93;;
75450;SDS011;64029;48.244;9.188;2023-08-06T03:41:22;2.70;;;2.10;;
75450;SDS011;64029;48.244;9.188;2023-08-06T03:43:48;2.67;;;2.33;;
75450;SDS011;64029;48.244;9.188;2023-08-06T03:46:15;4.50;;;2.30;;
75450;SDS011;64029;48.244;9.188;2023-08-06T03:48:42;1.97;;;1.47;;
75450;SDS011;64029;48.244;9.188;2023-08-06T03:51:10;4.53;;;1.97;;
75450;SDS011;64029;48.244;9.188;2023-08-06T03:53:37;2.73;;;1.97;;
75450;SDS011;64029;48.244;9.188;2023-08-06T03:56:04;5.60;;;1.97;;
75450;SDS011;64029;48.244;9.188;2023-08-06T03:58:31;3.37;;;2.07;;
75450;SDS011;64029;48.244;9.188;2023-08-06T04:00:58;1.80;;;1.40;;
75450;SDS011;64029;48.244;9.188;2023-08-06T04:03:26;3.70;;;1.87;;
75450;SDS011;64029;48.244;9.188;2023-08-06T04:05:53;2.57;;;2.00;;
75450;SDS011;64029;48.244;9.188;2023-08-06T04:08:21;5.50;;;2.20;;
75450;SDS011;64029;48.244;9.188;2023-08-06T04:10:49;3.10;;;1.97;;
75450;SDS011;64029;48.244;9.188;2023-08-06T04:13:17;4.10;;;2.37;;
75450;SDS011;64029;48.244;9.188;2023-08-06T04:15:44;2.27;;;2.07;;
75450;SDS011;64029;48.244;9.188;2023-08-06T04:18:12;4.97;;;1.90;;
75450;SDS011;64029;48.244;9.188;2023-08-06T04:20:43;2.13;;;1.87;;
75450;SDS011;64029;48.244;9.188;2023-08-06T04:23:10;4.10;;;2.07;;
75450;SDS011;64029;48.244;9.188;2023-08-06T04:25:41;2.20;;;1.80;;
75450;SDS011;64029;48.244;9.188;2023-08-06T04:28:08;3.30;;;2.17;;
75450;SDS011;64029;48.244;9.188;2023-08-06T04:30:36;2.33;;;2.07;;
75450;SDS011;64029;48.244;9.188;2023-08-06T04:33:03;4.00;;;1.97;;
75450;SDS011;64029;48.244;9.188;2023-08-06T04:35:30;4.53;;;2.00;;
75450;SDS011;64029;48.244;9.188;2023-08-06T04:37:57;7.20;;;2.53;;
75450;SDS011;64029;48.244;9.188;2023-08-06T04:40:24;3.30;;;1.90;;
75450;SDS011;64029;48.244;9.188;2023-08-06T04:42:53;2.00;;;1.63;;
75450;SDS011;64029;48.244;9.188;2023-08-06T04:45:20;3.60;;;1.90;;
75450;SDS011;64029;48.244;9.188;2023-08-06T04:47:49;3.27;;;2.20;;
75450;SDS011;64029;48.244;9.188;2023-08-06T04:50:16;2.77;;;1.90;;
75450;SDS011;64029;48.244;9.188;2023-08-06T04:52:43;3.33;;;2.30;;
75450;SDS011;64029;48.244;9.188;2023-08-06T04:55:10;2.10;;;1.77;;
75450;SDS011;64029;48.244;9.188;2023-08-06T04:57:37;1.73;;;1.40;;
75450;SDS011;64029;48.244;9.188;2023-08-06T05:00:06;1.80;;;1.30;;
75450;SDS011;64029;48.244;9.188;2023-08-06T05:02:33;4.53;;;1.50;;
75450;SDS011;64029;48.244;9.188;2023-08-06T05:05:03;3.67;;;1.27;;
75450;SDS011;64029;48.244;9.188;2023-08-06T05:07:32;6.43;;;1.30;;
75450;SDS011;64029;48.244;9.188;2023-08-06T05:10:00;1.53;;;1.27;;
75450;SDS011;64029;48.244;9.188;2023-08-06T05:12:29;1.33;;;1.23;;
75450;SDS011;64029;48.244;9.188;2023-08-06T05:14:56;4.83;;;3.00;;
75450;SDS011;64029;48.244;9.188;2023-08-06T05:17:24;1.30;;;1.10;;
75450;SDS011;64029;48.244;9.188;2023-08-06T05:19:51;3.37;;;1.30;;
75450;SDS011;64029;48.244;9.188;2023-08-06T05:22:18;2.93;;;1.40;;
75450;SDS011;64029;48.244;9.188;2023-08-06T05:24:45;1.20;;;0.90;;
75450;SDS011;64029;48.244;9.188;2023-08-06T05:27:12;2.37;;;1.00;;
75450;SDS011;64029;48.244;9.188;2023-08-06T05:29:39;3.10;;;1.23;;
75450;SDS011;64029;48.244;9.188;2023-08-06T05:32:07;1.93;;;1.07;;
75450;SDS011;64029;48.244;9.188;2023-08-06T05:34:35;2.53;;;1.03;;
75450;SDS011;64029;48.244;9.188;2023-08-06T05:37:02;4.30;;;1.07;;
75450;SDS011;64029;48.244;9.188;2023-08-06T05:39:30;4.53;;;1.00;;
75450;SDS011;64029;48.244;9.188;2023-08-06T05:41:57;1.67;;;1.10;;
75450;SDS011;64029;48.244;9.188;2023-08-06T05:44:24;1.40;;;1.30;;
75450;SDS011;64029;48.244;9.188;2023-08-06T05:46:51;1.33;;;1.00;;
75450;SDS011;64029;48.244;9.188;2023-08-06T05:49:18;1.93;;;1.17;;
75450;SDS011;64029;48.244;9.188;2023-08-06T05:51:46;1.30;;;1.00;;
75450;SDS011;64029;48.244;9.188;2023-08-06T05:54:13;0.90;;;0.80;;
75450;SDS011;64029;48.244;9.188;2023-08-06T05:56:40;1.00;;;0.80;;
75450;SDS011;64029;48.244;9.188;2023-08-06T05:59:07;2.00;;;1.10;;
75450;SDS011;64029;48.244;9.188;2023-08-06T06:01:34;1.77;;;1.00;;
75450;SDS011;64029;48.244;9.188;2023-08-06T06:04:01;1.00;;;0.87;;
75450;SDS011;64029;48.244;9.188;2023-08-06T06:06:29;0.90;;;0.80;;
75450;SDS011;64029;48.244;9.188;2023-08-06T06:08:57;2.40;;;0.90;;
75450;SDS011;64029;48.244;9.188;2023-08-06T06:11:24;0.90;;;0.77;;
75450;SDS011;64029;48.244;9.188;2023-08-06T06:13:51;1.60;;;0.80;;
75450;SDS011;64029;48.244;9.188;2023-08-06T06:16:18;1.47;;;0.80;;
75450;SDS011;64029;48.244;9.188;2023-08-06T06:18:45;1.00;;;0.77;;
75450;SDS011;64029;48.244;9.188;2023-08-06T06:21:12;2.43;;;1.10;;
75450;SDS011;64029;48.244;9.188;2023-08-06T06:23:39;2.13;;;0.90;;
75450;SDS011;64029;48.244;9.188;2023-08-06T06:26:10;1.47;;;0.90;;
75450;SDS011;64029;48.244;9.188;2023-08-06T06:28:37;1.20;;;0.70;;
75450;SDS011;64029;48.244;9.188;2023-08-06T06:31:04;1.00;;;0.90;;
75450;SDS011;64029;48.244;9.188;2023-08-06T06:33:31;7.63;;;3.00;;
75450;SDS011;64029;48.244;9.188;2023-08-06T06:35:58;2.97;;;1.60;;
75450;SDS011;64029;48.244;9.188;2023-08-06T06:38:24;1.63;;;1.17;;
75450;SDS011;64029;48.244;9.188;2023-08-06T06:40:55;1.90;;;1.10;;
75450;SDS011;64029;48.244;9.188;2023-08-06T06:43:23;1.00;;;0.90;;
75450;SDS011;64029;48.244;9.188;2023-08-06T06:45:55;1.57;;;1.00;;
75450;SDS011;64029;48.244;9.188;2023-08-06T06:48:23;1.40;;;1.30;;
75450;SDS011;64029;48.244;9.188;2023-08-06T06:50:50;2.13;;;1.93;;
75450;SDS011;64029;48.244;9.188;2023-08-06T06:53:16;1.73;;;1.43;;
75450;SDS011;64029;48.244;9.188;2023-08-06T06:55:43;2.93;;;1.70;;
75450;SDS011;64029;48.244;9.188;2023-08-06T06:58:10;1.43;;;1.20;;
75450;SDS011;64029;48.244;9.188;2023-08-06T07:00:39;2.60;;;0.90;;
75450;SDS011;64029;48.244;9.188;2023-08-06T07:03:06;3.73;;;1.70;;
75450;SDS011;64029;48.244;9.188;2023-08-06T07:05:36;2.07;;;1.87;;
75450;SDS011;64029;48.244;9.188;2023-08-06T07:08:03;1.87;;;1.37;;
75450;SDS011;64029;48.244;9.188;2023-08-06T07:10:30;1.70;;;1.00;;
75450;SDS011;64029;48.244;9.188;2023-08-06T07:13:00;2.73;;;0.70;;
75450;SDS011;64029;48.244;9.188;2023-08-06T07:15:27;1.40;;;0.90;;
75450;SDS011;64029;48.244;9.188;2023-08-06T07:17:55;1.63;;;0.60;;
75450;SDS011;64029;48.244;9.188;2023-08-06T07:20:22;1.30;;;0.70;;
75450;SDS011;64029;48.244;9.188;2023-08-06T07:22:49;3.00;;;0.70;;
75450;SDS011;64029;48.244;9.188;2023-08-06T07:25:19;0.90;;;0.60;;
75450;SDS011;64029;48.244;9.188;2023-08-06T07:27:46;0.90;;;0.60;;
75450;SDS011;64029;48.244;9.188;2023-08-06T07:30:13;0.80;;;0.60;;
75450;SDS011;64029;48.244;9.188;2023-08-06T07:32:40;1.03;;;0.70;;
75450;SDS011;64029;48.244;9.188;2023-08-06T07:35:09;2.47;;;0.70;;
75450;SDS011;64029;48.244;9.188;2023-08-06T07:37:37;0.80;;;0.70;;
75450;SDS011;64029;48.244;9.188;2023-08-06T07:40:05;0.80;;;0.60;;
75450;SDS011;64029;48.244;9.188;2023-08-06T07:42:32;0.80;;;0.60;;
75450;SDS011;64029;48.244;9.188;2023-08-06T07:45:03;0.90;;;0.60;;
75450;SDS011;64029;48.244;9.188;2023-08-06T07:47:36;0.83;;;0.60;;
75450;SDS011;64029;48.244;9.188;2023-08-06T07:50:03;0.90;;;0.60;;
75450;SDS011;64029;48.244;9.188;2023-08-06T07:52:32;0.70;;;0.50;;
75450;SDS011;64029;48.244;9.188;2023-08-06T07:54:59;0.90;;;0.50;;
75450;SDS011;64029;48.244;9.188;2023-08-06T07:57:29;0.70;;;0.50;;
75450;SDS011;64029;48.244;9.188;2023-08-06T07:59:59;0.90;;;0.60;;
75450;SDS011;64029;48.244;9.188;2023-08-06T08:02:28;1.10;;;0.50;;
75450;SDS011;64029;48.244;9.188;2023-08-06T08:04:55;0.80;;;0.50;;
75450;SDS011;64029;48.244;9.188;2023-08-06T08:07:22;0.83;;;0.50;;
75450;SDS011;64029;48.244;9.188;2023-08-06T08:09:56;0.73;;;0.60;;
75450;SDS011;64029;48.244;9.188;2023-08-06T08:12:23;0.70;;;0.50;;
75450;SDS011;64029;48.244;9.188;2023-08-06T08:14:50;0.80;;;0.50;;
75450;SDS011;64029;48.244;9.188;2023-08-06T08:17:20;0.80;;;0.60;;
75450;SDS011;64029;48.244;9.188;2023-08-06T08:19:47;0.93;;;0.53;;
75450;SDS011;64029;48.244;9.188;2023-08-06T08:22:14;0.80;;;0.70;;
75450;SDS011;64029;48.244;9.188;2023-08-06T08:24:41;1.20;;;1.00;;
75450;SDS011;64029;48.244;9.188;2023-08-06T08:27:09;1.87;;;1.20;;
75450;SDS011;64029;48.244;9.188;2023-08-06T08:29:36;1.37;;;1.10;;
75450;SDS011;64029;48.244;9.188;2023-08-06T08:32:03;0.90;;;0.80;;
75450;SDS011;64029;48.244;9.188;2023-08-06T08:34:31;1.10;;;0.87;;
75450;SDS011;64029;48.244;9.188;2023-08-06T08:39:26;0.70;;;0.60;;
75450;SDS011;64029;48.244;9.188;2023-08-06T08:41:53;0.80;;;0.50;;
75450;SDS011;64029;48.244;9.188;2023-08-06T08:44:21;1.23;;;0.50;;
75450;SDS011;64029;48.244;9.188;2023-08-06T08:46:48;0.70;;;0.50;;
75450;SDS011;64029;48.244;9.188;2023-08-06T08:49:16;0.80;;;0.50;;
75450;SDS011;64029;48.244;9.188;2023-08-06T08:51:44;0.70;;;0.50;;
75450;SDS011;64029;48.244;9.188;2023-08-06T08:54:12;0.80;;;0.60;;
75450;SDS011;64029;48.244;9.188;2023-08-06T08:56:41;1.10;;;0.60;;
75450;SDS011;64029;48.244;9.188;2023-08-06T08:59:09;0.80;;;0.50;;
75450;SDS011;64029;48.244;9.188;2023-08-06T09:01:38;2.17;;;0.60;;
75450;SDS011;64029;48.244;9.188;2023-08-06T09:04:05;0.83;;;0.70;;
75450;SDS011;64029;48.244;9.188;2023-08-06T09:06:33;0.70;;;0.50;;
75450;SDS011;64029;48.244;9.188;2023-08-06T09:09:08;0.97;;;0.57;;
75450;SDS011;64029;48.244;9.188;2023-08-06T09:11:42;0.87;;;0.50;;
75450;SDS011;64029;48.244;9.188;2023-08-06T09:14:10;0.80;;;0.50;;
75450;SDS011;64029;48.244;9.188;2023-08-06T09:16:39;1.87;;;0.50;;
75450;SDS011;64029;48.244;9.188;2023-08-06T09:19:08;0.70;;;0.50;;
75450;SDS011;64029;48.244;9.188;2023-08-06T09:21:38;0.70;;;0.50;;
75450;SDS011;64029;48.244;9.188;2023-08-06T09:24:09;0.70;;;0.50;;
75450;SDS011;64029;48.244;9.188;2023-08-06T09:26:37;0.80;;;0.60;;
75450;SDS011;64029;48.244;9.188;2023-08-06T09:29:04;0.70;;;0.50;;
75450;SDS011;64029;48.244;9.188;2023-08-06T09:31:40;0.70;;;0.50;;
75450;SDS011;64029;48.244;9.188;2023-08-06T09:34:11;0.70;;;0.50;;
75450;SDS011;64029;48.244;9.188;2023-08-06T09:36:41;0.80;;;0.60;;
75450;SDS011;64029;48.244;9.188;2023-08-06T09:39:14;1.00;;;0.60;;
75450;SDS011;64029;48.244;9.188;2023-08-06T09:41:42;0.73;;;0.60;;
75450;SDS011;64029;48.244;9.188;2023-08-06T09:44:15;0.80;;;0.60;;
75450;SDS011;64029;48.244;9.188;2023-08-06T09:46:44;1.00;;;0.57;;
75450;SDS011;64029;48.244;9.188;2023-08-06T09:49:14;1.47;;;0.50;;
75450;SDS011;64029;48.244;9.188;2023-08-06T09:51:44;1.40;;;0.57;;
75450;SDS011;64029;48.244;9.188;2023-08-06T09:54:12;0.90;;;0.70;;
75450;SDS011;64029;48.244;9.188;2023-08-06T09:56:40;0.70;;;0.50;;
75450;SDS011;64029;48.244;9.188;2023-08-06T09:59:08;1.23;;;0.53;;
75450;SDS011;64029;48.244;9.188;2023-08-06T10:01:36;0.80;;;0.60;;
75450;SDS011;64029;48.244;9.188;2023-08-06T10:04:05;0.80;;;0.60;;
75450;SDS011;64029;48.244;9.188;2023-08-06T10:06:34;1.00;;;0.60;;
75450;SDS011;64029;48.244;9.188;2023-08-06T10:09:01;0.80;;;0.60;;
75450;SDS011;64029;48.244;9.188;2023-08-06T10:11:29;1.73;;;0.60;;
75450;SDS011;64029;48.244;9.188;2023-08-06T10:13:57;0.90;;;0.50;;
75450;SDS011;64029;48.244;9.188;2023-08-06T10:16:28;0.87;;;0.60;;
75450;SDS011;64029;48.244;9.188;2023-08-06T10:18:57;1.30;;;0.60;;
75450;SDS011;64029;48.244;9.188;2023-08-06T10:21:27;0.90;;;0.50;;
75450;SDS011;64029;48.244;9.188;2023-08-06T10:23:55;0.90;;;0.60;;
75450;SDS011;64029;48.244;9.188;2023-08-06T10:26:24;1.00;;;0.57;;
75450;SDS011;64029;48.244;9.188;2023-08-06T10:28:52;0.80;;;0.50;;
75450;SDS011;64029;48.244;9.188;2023-08-06T10:31:20;0.80;;;0.70;;
75450;SDS011;64029;48.244;9.188;2023-08-06T10:34:08;1.30;;;0.70;;
75450;SDS011;64029;48.244;9.188;2023-08-06T10:36:36;0.90;;;0.50;;
75450;SDS011;64029;48.244;9.188;2023-08-06T10:39:04;0.80;;;0.60;;
75450;SDS011;64029;48.244;9.188;2023-08-06T10:41:31;0.80;;;0.50;;
75450;SDS011;64029;48.244;9.188;2023-08-06T10:44:06;0.70;;;0.50;;
75450;SDS011;64029;48.244;9.188;2023-08-06T10:46:34;0.80;;;0.60;;
75450;SDS011;64029;48.244;9.188;2023-08-06T10:49:03;0.90;;;0.60;;
75450;SDS011;64029;48.244;9.188;2023-08-06T10:51:32;0.70;;;0.60;;
75450;SDS011;64029;48.244;9.188;2023-08-06T10:54:00;0.80;;;0.50;;
75450;SDS011;64029;48.244;9.188;2023-08-06T10:56:28;0.70;;;0.50;;
75450;SDS011;64029;48.244;9.188;2023-08-06T10:58:56;0.70;;;0.50;;
75450;SDS011;64029;48.244;9.188;2023-08-06T11:01:28;0.70;;;0.60;;
75450;SDS011;64029;48.244;9.188;2023-08-06T11:03:55;0.80;;;0.60;;
75450;SDS011;64029;48.244;9.188;2023-08-06T11:06:22;0.97;;;0.80;;
75450;SDS011;64029;48.244;9.188;2023-08-06T11:08:51;0.73;;;0.50;;
75450;SDS011;64029;48.244;9.188;2023-08-06T11:11:22;0.70;;;0.40;;
75450;SDS011;64029;48.244;9.188;2023-08-06T11:13:50;0.70;;;0.50;;
75450;SDS011;64029;48.244;9.188;2023-08-06T11:16:18;0.70;;;0.50;;
75450;SDS011;64029;48.244;9.188;2023-08-06T11:18:46;0.90;;;0.70;;
75450;SDS011;64029;48.244;9.188;2023-08-06T11:21:13;1.67;;;0.50;;
75450;SDS011;64029;48.244;9.188;2023-08-06T11:23:40;1.00;;;0.60;;
75450;SDS011;64029;48.244;9.188;2023-08-06T11:26:07;0.70;;;0.50;;
75450;SDS011;64029;48.244;9.188;2023-08-06T11:28:36;0.80;;;0.50;;
75450;SDS011;64029;48.244;9.188;2023-08-06T11:31:03;0.70;;;0.50;;
75450;SDS011;64029;48.244;9.188;2023-08-06T11:33:29;0.80;;;0.50;;
75450;SDS011;64029;48.244;9.188;2023-08-06T11:35:57;0.80;;;0.60;;
75450;SDS011;64029;48.244;9.188;2023-08-06T11:38:25;0.70;;;0.50;;
75450;SDS011;64029;48.244;9.188;2023-08-06T11:40:53;0.80;;;0.60;;
75450;SDS011;64029;48.244;9.188;2023-08-06T11:43:21;0.70;;;0.50;;
75450;SDS011;64029;48.244;9.188;2023-08-06T11:45:50;0.70;;;0.50;;
75450;SDS011;64029;48.244;9.188;2023-08-06T11:48:22;0.70;;;0.50;;
75450;SDS011;64029;48.244;9.188;2023-08-06T11:50:49;1.00;;;0.53;;
75450;SDS011;64029;48.244;9.188;2023-08-06T11:53:20;0.70;;;0.50;;
75450;SDS011;64029;48.244;9.188;2023-08-06T11:55:47;0.80;;;0.50;;
75450;SDS011;64029;48.244;9.188;2023-08-06T11:58:14;0.80;;;0.60;;
75450;SDS011;64029;48.244;9.188;2023-08-06T12:00:43;0.80;;;0.57;;
75450;SDS011;64029;48.244;9.188;2023-08-06T12:03:12;0.80;;;0.60;;
75450;SDS011;64029;48.244;9.188;2023-08-06T12:05:39;0.90;;;0.60;;
75450;SDS011;64029;48.244;9.188;2023-08-06T12:08:06;0.80;;;0.70;;
75450;SDS011;64029;48.244;9.188;2023-08-06T12:10:36;0.70;;;0.57;;
75450;SDS011;64029;48.244;9.188;2023-08-06T12:13:03;0.73;;;0.57;;
75450;SDS011;64029;48.244;9.188;2023-08-06T12:15:31;0.80;;;0.60;;
75450;SDS011;64029;48.244;9.188;2023-08-06T12:17:59;0.87;;;0.60;;
75450;SDS011;64029;48.244;9.188;2023-08-06T12:20:27;0.80;;;0.60;;
75450;SDS011;64029;48.244;9.188;2023-08-06T12:22:55;1.07;;;0.63;;
75450;SDS011;64029;48.244;9.188;2023-08-06T12:25:22;0.93;;;0.70;;
75450;SDS011;64029;48.244;9.188;2023-08-06T12:27:49;2.10;;;0.80;;
75450;SDS011;64029;48.244;9.188;2023-08-06T12:30:16;0.80;;;0.70;;
75450;SDS011;64029;48.244;9.188;2023-08-06T12:32:43;1.83;;;0.70;;
75450;SDS011;64029;48.244;9.188;2023-08-06T12:35:10;0.80;;;0.73;;
75450;SDS011;64029;48.244;9.188;2023-08-06T12:37:40;1.07;;;0.97;;
75450;SDS011;64029;48.244;9.188;2023-08-06T12:40:09;1.80;;;0.97;;
75450;SDS011;64029;48.244;9.188;2023-08-06T12:42:36;1.20;;;0.90;;
75450;SDS011;64029;48.244;9.188;2023-08-06T12:45:04;1.00;;;0.83;;
75450;SDS011;64029;48.244;9.188;2023-08-06T12:47:31;1.20;;;0.70;;
75450;SDS011;64029;48.244;9.188;2023-08-06T12:49:58;1.00;;;0.80;;
75450;SDS011;64029;48.244;9.188;2023-08-06T12:52:25;1.00;;;0.80;;
75450;SDS011;64029;48.244;9.188;2023-08-06T12:54:54;0.90;;;0.70;;
75450;SDS011;64029;48.244;9.188;2023-08-06T12:57:21;1.03;;;0.80;;
75450;SDS011;64029;48.244;9.188;2023-08-06T12:59:48;2.20;;;1.00;;
75450;SDS011;64029;48.244;9.188;2023-08-06T13:02:15;1.10;;;0.80;;
75450;SDS011;64029;48.244;9.188;2023-08-06T13:04:42;1.97;;;0.90;;
75450;SDS011;64029;48.244;9.188;2023-08-06T13:07:09;0.90;;;0.80;;
75450;SDS011;64029;48.244;9.188;2023-08-06T13:09:36;2.40;;;0.80;;
75450;SDS011;64029;48.244;9.188;2023-08-06T13:12:04;1.73;;;0.70;;
75450;SDS011;64029;48.244;9.188;2023-08-06T13:14:32;1.30;;;0.90;;
75450;SDS011;64029;48.244;9.188;2023-08-06T13:17:00;1.00;;;0.90;;
75450;SDS011;64029;48.244;9.188;2023-08-06T13:19:27;3.43;;;1.03;;
75450;SDS011;64029;48.244;9.188;2023-08-06T13:22:02;1.10;;;0.80;;
75450;SDS011;64029;48.244;9.188;2023-08-06T13:24:31;1.00;;;0.80;;
75450;SDS011;64029;48.244;9.188;2023-08-06T13:26:59;0.80;;;0.60;;
75450;SDS011;64029;48.244;9.188;2023-08-06T13:29:28;1.10;;;0.70;;
75450;SDS011;64029;48.244;9.188;2023-08-06T13:31:55;0.90;;;0.70;;
75450;SDS011;64029;48.244;9.188;2023-08-06T13:34:22;1.00;;;0.70;;
75450;SDS011;64029;48.244;9.188;2023-08-06T13:36:49;0.70;;;0.60;;
75450;SDS011;64029;48.244;9.188;2023-08-06T13:39:16;1.10;;;0.80;;
75450;SDS011;64029;48.244;9.188;2023-08-06T13:41:43;0.90;;;0.70;;
75450;SDS011;64029;48.244;9.188;2023-08-06T13:44:10;1.00;;;0.70;;
75450;SDS011;64029;48.244;9.188;2023-08-06T13:46:40;1.43;;;0.60;;
75450;SDS011;64029;48.244;9.188;2023-08-06T13:49:08;1.43;;;0.60;;
75450;SDS011;64029;48.244;9.188;2023-08-06T13:51:35;1.00;;;0.60;;
75450;SDS011;64029;48.244;9.188;2023-08-06T13:54:03;0.90;;;0.70;;
75450;SDS011;64029;48.244;9.188;2023-08-06T13:56:30;0.80;;;0.60;;
75450;SDS011;64029;48.244;9.188;2023-08-06T13:58:58;2.10;;;0.73;;
75450;SDS011;64029;48.244;9.188;2023-08-06T14:01:25;0.80;;;0.60;;
75450;SDS011;64029;48.244;9.188;2023-08-06T14:03:53;0.90;;;0.70;;
75450;SDS011;64029;48.244;9.188;2023-08-06T14:06:20;1.00;;;0.70;;
75450;SDS011;64029;48.244;9.188;2023-08-06T14:08:48;0.80;;;0.50;;
75450;SDS011;64029;48.244;9.188;2023-08-06T14:11:15;0.90;;;0.60;;
75450;SDS011;64029;48.244;9.188;2023-08-06T14:13:42;0.80;;;0.70;;
75450;SDS011;64029;48.244;9.188;2023-08-06T14:16:09;0.80;;;0.60;;
75450;SDS011;64029;48.244;9.188;2023-08-06T14:18:36;0.80;;;0.60;;
75450;SDS011;64029;48.244;9.188;2023-08-06T14:21:05;1.00;;;0.63;;
75450;SDS011;64029;48.244;9.188;2023-08-06T14:23:32;1.10;;;0.70;;
75450;SDS011;64029;48.244;9.188;2023-08-06T14:25:59;0.90;;;0.77;;
75450;SDS011;64029;48.244;9.188;2023-08-06T14:28:29;1.30;;;0.67;;
75450;SDS011;64029;48.244;9.188;2023-08-06T14:30:56;0.80;;;0.70;;
75450;SDS011;64029;48.244;9.188;2023-08-06T14:33:26;0.80;;;0.70;;
75450;SDS011;64029;48.244;9.188;2023-08-06T14:35:52;1.13;;;0.80;;
75450;SDS011;64029;48.244;9.188;2023-08-06T14:38:21;1.13;;;0.60;;
75450;SDS011;64029;48.244;9.188;2023-08-06T14:40:48;0.80;;;0.60;;
75450;SDS011;64029;48.244;9.188;2023-08-06T14:43:15;0.80;;;0.70;;
75450;SDS011;64029;48.244;9.188;2023-08-06T14:45:42;1.00;;;0.70;;
75450;SDS011;64029;48.244;9.188;2023-08-06T14:48:10;0.97;;;0.70;;
75450;SDS011;64029;48.244;9.188;2023-08-06T14:50:37;1.50;;;1.10;;
75450;SDS011;64029;48.244;9.188;2023-08-06T14:53:06;1.37;;;0.90;;
75450;SDS011;64029;48.244;9.188;2023-08-06T14:55:36;1.30;;;0.80;;